Time;durP1;ratioP1;P1;durP2;ratioP2;P2;SDS_P1;SDS_P2;PMS_P1;PMS_P2;Temp;Humidity;BMP_temperature;BMP_pressure;BME280_temperature;BME280_humidity;BME280_pressure;Samples;Min_cycle;Max_cycle;Signal;HPM_P1;HPM_P2
2022/08/13 00:00:19;;;;;;;4.18;2.85;;;25.90;58.80;;;;;;4981533;28;20043;-92
2022/08/13 00:02:54;;;;;;;6.20;3.00;;;25.80;59.50;;;;;;4966873;28;20046;-91
2022/08/13 00:05:24;;;;;;;6.28;3.40;;;25.80;60.50;;;;;;4982889;28;20065;-92
2022/08/13 00:07:50;;;;;;;7.55;3.03;;;25.80;60.10;;;;;;4968355;28;20561;-92
2022/08/13 00:13:12;;;;;;;10.50;3.10;;;25.70;60.10;;;;;;4970939;28;20380;-92
2022/08/13 00:15:43;;;;;;;8.20;3.45;;;25.70;60.00;;;;;;4970482;28;20034;-93
2022/08/13 00:18:15;;;;;;;4.75;2.92;;;25.70;60.70;;;;;;4965261;28;20022;-92
2022/08/13 00:21:01;;;;;;;9.70;3.17;;;25.70;61.10;;;;;;4964370;28;20306;-93
2022/08/13 00:23:29;;;;;;;7.03;3.13;;;25.60;60.90;;;;;;4965765;28;20251;-93
2022/08/13 00:26:15;;;;;;;4.45;2.92;;;25.60;61.80;;;;;;4979573;28;20073;-92
2022/08/13 00:28:41;;;;;;;5.90;2.92;;;25.50;61.60;;;;;;4972159;28;20023;-92
2022/08/13 00:31:10;;;;;;;8.80;3.05;;;25.50;60.10;;;;;;4971092;28;20019;-92
2022/08/13 00:33:38;;;;;;;7.78;3.13;;;25.40;60.40;;;;;;4969995;28;20507;-93
2022/08/13 00:36:13;;;;;;;6.53;2.97;;;25.40;59.50;;;;;;4971488;28;20030;-92
2022/08/13 00:38:44;;;;;;;6.00;2.80;;;25.40;58.80;;;;;;4979224;28;20514;-94
2022/08/13 00:41:18;;;;;;;8.25;3.13;;;25.40;59.00;;;;;;4970235;28;20085;-93
2022/08/13 00:43:55;;;;;;;5.68;3.28;;;25.30;60.20;;;;;;4979989;28;20026;-91
2022/08/13 00:46:21;;;;;;;4.70;2.67;;;25.30;59.60;;;;;;4983403;28;20126;-92
2022/08/13 00:48:49;;;;;;;6.90;2.95;;;25.20;59.80;;;;;;4966810;28;20026;-94
2022/08/13 00:51:18;;;;;;;8.43;3.15;;;25.20;59.50;;;;;;4967385;28;20122;-93
2022/08/13 00:53:44;;;;;;;6.28;3.17;;;25.20;60.00;;;;;;4968044;28;20147;-93
2022/08/13 00:56:10;;;;;;;5.07;3.17;;;25.20;60.10;;;;;;4969716;28;20019;-92
2022/08/13 00:58:39;;;;;;;5.50;2.97;;;25.10;60.10;;;;;;4969740;28;20505;-92
2022/08/13 01:01:06;;;;;;;4.75;3.00;;;25.10;60.90;;;;;;4966583;28;20058;-91
2022/08/13 01:03:36;;;;;;;6.60;3.38;;;25.00;61.30;;;;;;4969560;28;20023;-92
2022/08/13 01:06:03;;;;;;;9.55;3.00;;;25.00;61.50;;;;;;4972005;28;20027;-93
2022/08/13 01:08:31;;;;;;;8.98;3.03;;;25.00;63.20;;;;;;4967627;28;20042;-93
2022/08/13 01:11:11;;;;;;;9.02;3.50;;;25.00;59.20;;;;;;4977936;28;20031;-92
2022/08/13 01:13:40;;;;;;;10.25;3.38;;;25.00;58.50;;;;;;4961603;28;20022;-92
2022/08/13 01:16:13;;;;;;;7.43;3.10;;;25.10;58.70;;;;;;4967977;28;20598;-93
2022/08/13 01:18:42;;;;;;;6.35;2.83;;;25.20;59.70;;;;;;4969368;28;20038;-93
2022/08/13 01:21:10;;;;;;;8.80;3.30;;;25.30;60.10;;;;;;4969022;28;20040;-92
2022/08/13 01:23:39;;;;;;;5.55;3.42;;;25.30;60.20;;;;;;4963543;28;20026;-93
2022/08/13 01:26:10;;;;;;;9.98;3.60;;;25.30;60.60;;;;;;4960492;28;20151;-93
2022/08/13 01:28:39;;;;;;;8.43;3.10;;;25.40;61.70;;;;;;4969168;28;20034;-91
2022/08/13 01:31:11;;;;;;;7.07;3.60;;;25.40;61.60;;;;;;4970099;28;20459;-93
2022/08/13 01:33:41;;;;;;;4.95;3.10;;;25.40;62.60;;;;;;4971258;28;20827;-92
2022/08/13 01:36:08;;;;;;;3.58;2.85;;;25.30;63.00;;;;;;4964680;28;20423;-92
2022/08/13 01:38:39;;;;;;;10.38;3.70;;;25.30;64.90;;;;;;4964792;28;20111;-92
2022/08/13 01:41:09;;;;;;;11.23;3.70;;;25.20;66.70;;;;;;4971723;28;20022;-91
2022/08/13 01:43:42;;;;;;;8.68;3.47;;;25.20;69.90;;;;;;4982967;28;20029;-92
2022/08/13 01:46:11;;;;;;;9.98;3.22;;;25.10;73.70;;;;;;4975807;28;20100;-92
2022/08/13 01:51:30;;;;;;;8.13;3.70;;;24.70;78.70;;;;;;4981065;28;20026;-92
2022/08/13 01:53:58;;;;;;;6.10;3.70;;;24.60;80.50;;;;;;4969742;28;20042;-92
2022/08/13 01:56:29;;;;;;;8.35;3.25;;;24.30;81.60;;;;;;4966662;28;20117;-91
2022/08/13 01:58:58;;;;;;;9.48;3.42;;;24.00;84.00;;;;;;4980188;28;20030;-93
2022/08/13 02:01:25;;;;;;;4.93;3.20;;;23.90;86.10;;;;;;4962990;28;20023;-92
2022/08/13 02:04:01;;;;;;;8.35;3.60;;;23.90;87.00;;;;;;4961546;28;20022;-91
2022/08/13 02:06:31;;;;;;;11.48;3.67;;;23.90;88.10;;;;;;4962142;28;20499;-92
2022/08/13 02:08:59;;;;;;;9.10;3.50;;;23.90;89.00;;;;;;4960008;28;20058;-92
2022/08/13 02:11:43;;;;;;;6.28;3.50;;;23.90;89.40;;;;;;4960420;28;20507;-92
2022/08/13 02:14:09;;;;;;;7.43;3.10;;;23.90;89.90;;;;;;4970560;28;20033;-93
2022/08/13 02:16:39;;;;;;;10.77;3.72;;;23.90;90.20;;;;;;4972672;28;20022;-92
2022/08/13 02:19:07;;;;;;;6.25;3.40;;;23.90;90.90;;;;;;4967157;28;20042;-89
2022/08/13 02:21:38;;;;;;;10.38;3.53;;;23.90;91.10;;;;;;4978714;28;20029;-92
2022/08/13 02:24:15;;;;;;;6.70;3.60;;;23.80;91.60;;;;;;4968927;28;20545;-92
2022/08/13 02:26:44;;;;;;;4.68;3.33;;;23.80;92.10;;;;;;4965681;28;20031;-92
2022/08/13 02:29:25;;;;;;;;;;;;;;;;;;;;;
2022/08/13 02:31:53;;;;;;;6.00;3.20;;;23.80;92.50;;;;;;4998283;28;20057;-92
2022/08/13 02:34:19;;;;;;;7.47;3.47;;;23.90;92.50;;;;;;4966155;28;20111;-93
2022/08/13 02:36:49;;;;;;;6.45;3.33;;;23.90;92.40;;;;;;4965530;28;20098;-93
2022/08/13 02:39:18;;;;;;;5.50;3.42;;;23.90;92.20;;;;;;4969238;28;20030;-92
2022/08/13 02:41:53;;;;;;;6.35;3.72;;;23.90;92.20;;;;;;4967881;28;20479;-91
2022/08/13 02:44:30;;;;;;;4.90;3.40;;;24.00;92.30;;;;;;4964941;28;20023;-93
2022/08/13 02:46:58;;;;;;;11.20;3.75;;;24.00;92.40;;;;;;4959848;28;20488;-92
2022/08/13 02:49:24;;;;;;;7.25;3.53;;;24.00;92.40;;;;;;4969304;28;20294;-93
2022/08/13 02:52:10;;;;;;;8.50;3.40;;;23.90;92.50;;;;;;4972178;28;20105;-93
2022/08/13 02:54:43;;;;;;;6.97;3.42;;;23.90;92.80;;;;;;4966727;28;20519;-93
2022/08/13 02:57:10;;;;;;;6.15;3.65;;;23.80;92.90;;;;;;4979880;28;20031;-93
2022/08/13 02:59:39;;;;;;;5.25;3.60;;;23.80;93.10;;;;;;4966310;28;20516;-91
2022/08/13 03:02:08;;;;;;;7.20;3.55;;;23.80;93.10;;;;;;4968151;28;20305;-93
2022/08/13 03:04:35;;;;;;;9.57;3.50;;;23.70;93.30;;;;;;4965286;28;20527;-93
2022/08/13 03:07:01;;;;;;;8.10;3.85;;;23.60;93.60;;;;;;4968316;28;20022;-93
2022/08/13 03:09:30;;;;;;;4.43;3.55;;;23.60;93.70;;;;;;4986920;28;20035;-91
2022/08/13 03:11:59;;;;;;;5.15;3.35;;;23.50;94.00;;;;;;4991195;28;20037;-92
2022/08/13 03:14:42;;;;;;;5.07;3.30;;;23.50;94.10;;;;;;4990762;28;20031;-93
2022/08/13 03:17:12;;;;;;;5.30;3.90;;;23.50;94.40;;;;;;4996322;28;20003;-92
2022/08/13 03:19:43;;;;;;;5.70;3.47;;;23.50;94.60;;;;;;4967361;28;20041;-91
2022/08/13 03:22:13;;;;;;;5.68;3.63;;;23.40;94.80;;;;;;4962076;28;20015;-93
2022/08/13 03:24:41;;;;;;;11.85;3.65;;;23.40;94.80;;;;;;4964402;28;20031;-93
2022/08/13 03:27:11;;;;;;;4.85;3.55;;;23.40;95.00;;;;;;4963644;28;20519;-92
2022/08/13 03:29:39;;;;;;;6.90;3.47;;;23.40;95.20;;;;;;4977282;28;20029;-93
2022/08/13 03:32:05;;;;;;;7.38;3.38;;;23.40;95.40;;;;;;4994117;28;20061;-92
2022/08/13 03:34:34;;;;;;;5.10;3.53;;;23.40;95.30;;;;;;4995204;28;20030;-92
2022/08/13 03:37:01;;;;;;;8.25;3.47;;;23.40;95.40;;;;;;4989787;28;20015;-92
2022/08/13 03:39:29;;;;;;;6.32;3.70;;;23.40;95.80;;;;;;4979922;28;20142;-92
2022/08/13 03:41:55;;;;;;;6.22;3.65;;;23.30;95.60;;;;;;4968713;28;20633;-94
2022/08/13 03:44:21;;;;;;;6.18;3.63;;;23.20;95.80;;;;;;4971938;28;20489;-92
2022/08/13 03:46:50;;;;;;;6.30;3.45;;;23.20;95.90;;;;;;4970174;28;20088;-93
2022/08/13 03:49:18;;;;;;;7.72;4.03;;;23.20;96.10;;;;;;4964829;28;20046;-91
2022/08/13 03:51:44;;;;;;;6.47;4.55;;;23.20;96.30;;;;;;4963063;28;20110;-93
2022/08/13 03:54:10;;;;;;;5.82;3.63;;;23.10;96.30;;;;;;4974148;28;20598;-93
2022/08/13 03:56:45;;;;;;;4.43;3.60;;;23.10;96.40;;;;;;4968932;28;20039;-93
2022/08/13 03:59:25;;;;;;;6.68;3.80;;;23.10;96.50;;;;;;4968802;28;20031;-93
2022/08/13 04:01:54;;;;;;;4.68;4.05;;;23.10;96.50;;;;;;4965551;28;20499;-94
2022/08/13 04:04:20;;;;;;;7.38;4.22;;;23.00;96.60;;;;;;4968757;28;20034;-92
2022/08/13 04:06:51;;;;;;;4.50;3.95;;;23.00;96.60;;;;;;4964614;28;20057;-93
2022/08/13 04:09:20;;;;;;;7.32;3.90;;;23.00;96.60;;;;;;4965842;28;20058;-93
2022/08/13 04:11:55;;;;;;;7.80;3.80;;;23.00;96.80;;;;;;4972235;28;20019;-93
2022/08/13 04:14:28;;;;;;;6.13;3.60;;;23.00;96.60;;;;;;4979888;28;20038;-92
2022/08/13 04:16:58;;;;;;;6.00;3.95;;;22.90;96.80;;;;;;4972595;28;20023;-94
2022/08/13 04:19:27;;;;;;;4.53;3.60;;;22.90;96.90;;;;;;4968738;28;20038;-92
2022/08/13 04:21:57;;;;;;;6.55;3.80;;;22.90;97.00;;;;;;4971551;28;20483;-92
2022/08/13 04:24:33;;;;;;;;;;;;;;;;;;;;;
2022/08/13 04:27:18;;;;;;;8.98;4.35;;;22.90;97.10;;;;;;4978905;28;20050;-93
2022/08/13 04:29:51;;;;;;;10.40;4.53;;;22.90;97.10;;;;;;4961721;28;20023;-93
2022/08/13 04:32:48;;;;;;;7.57;3.90;;;22.90;97.10;;;;;;4971857;28;20073;-93
2022/08/13 04:35:19;;;;;;;6.63;4.30;;;22.90;97.20;;;;;;4963289;28;20135;-94
2022/08/13 04:37:47;;;;;;;8.25;3.97;;;22.80;97.20;;;;;;4971190;28;20074;-92
2022/08/13 04:40:22;;;;;;;6.53;3.63;;;22.90;97.20;;;;;;4962781;28;20109;-93
2022/08/13 04:42:55;;;;;;;7.47;4.20;;;22.80;97.10;;;;;;4981375;28;20123;-91
2022/08/13 04:45:23;;;;;;;7.43;4.27;;;22.90;97.00;;;;;;4966805;28;20045;-93
2022/08/13 04:47:51;;;;;;;8.88;4.47;;;22.90;96.90;;;;;;4967543;28;20786;-92
2022/08/13 04:50:20;;;;;;;9.13;4.32;;;22.90;96.80;;;;;;4969666;28;20207;-92
2022/08/13 04:53:20;;;;;;;6.38;4.40;;;22.90;96.90;;;;;;4971933;28;20026;-94
2022/08/13 04:55:46;;;;;;;7.18;4.15;;;22.90;96.80;;;;;;4964827;28;20396;-93
2022/08/13 04:58:29;;;;;;;6.85;4.70;;;22.80;97.00;;;;;;4967804;28;20037;-93
2022/08/13 05:00:57;;;;;;;5.85;4.07;;;22.80;96.80;;;;;;4963342;28;20026;-93
2022/08/13 05:03:30;;;;;;;6.65;3.90;;;22.90;96.80;;;;;;4970981;28;20030;-91
2022/08/13 05:06:04;;;;;;;8.90;4.72;;;22.90;96.80;;;;;;4980673;28;20054;-94
2022/08/13 05:09:13;;;;;;;11.65;4.40;;;22.90;97.50;;;;;;4965611;28;20030;-92
2022/08/13 05:13:17;;;;;;;;;;;;;;;;;;;;;
2022/08/13 05:19:45;;;;;;;9.60;4.43;;;22.90;98.10;;;;;;4885949;29;20149;-92
2022/08/13 05:29:10;;;;;;;6.07;4.70;;;22.90;99.90;;;;;;4962236;28;20037;-91
2022/08/13 05:31:44;;;;;;;7.40;4.90;;;23.00;99.90;;;;;;4976482;28;20027;-93
2022/08/13 05:34:10;;;;;;;9.20;4.53;;;22.90;99.90;;;;;;4968329;28;20027;-89
2022/08/13 05:36:39;;;;;;;10.15;5.05;;;22.90;99.90;;;;;;4981036;28;20031;-89
2022/08/13 05:39:05;;;;;;;5.80;4.35;;;23.00;99.90;;;;;;4979801;28;20039;-89
2022/08/13 05:41:31;;;;;;;6.97;4.72;;;23.10;99.90;;;;;;4971934;28;20200;-89
2022/08/13 05:43:57;;;;;;;10.48;4.65;;;23.00;99.90;;;;;;4992419;28;20026;-90
2022/08/13 05:46:24;;;;;;;10.45;5.60;;;23.00;99.90;;;;;;4991434;28;20018;-89
2022/08/13 05:48:56;;;;;;;11.93;5.20;;;23.00;99.90;;;;;;4990889;28;20018;-89
2022/08/13 05:51:28;;;;;;;10.95;5.50;;;23.00;99.90;;;;;;4988431;28;20426;-89
2022/08/13 05:53:59;;;;;;;8.82;5.80;;;23.00;99.90;;;;;;4990589;28;20339;-89
2022/08/13 05:56:26;;;;;;;7.13;4.90;;;22.70;99.90;;;;;;4980442;28;20104;-89
2022/08/13 05:58:52;;;;;;;10.00;5.32;;;22.80;99.90;;;;;;4983262;28;20030;-89
2022/08/13 06:04:21;;;;;;;11.02;5.85;;;22.80;99.90;;;;;;4980942;28;20062;-88
2022/08/13 06:06:47;;;;;;;10.55;5.88;;;22.80;99.90;;;;;;4979436;28;20061;-88
2022/08/13 06:09:13;;;;;;;13.40;5.68;;;22.80;99.90;;;;;;4979329;28;20046;-89
2022/08/13 06:11:40;;;;;;;12.57;5.75;;;22.80;99.90;;;;;;4976329;28;20031;-88
2022/08/13 06:14:06;;;;;;;11.20;5.90;;;22.80;99.90;;;;;;4967041;28;20493;-89
2022/08/13 06:16:33;;;;;;;10.25;6.10;;;22.80;99.90;;;;;;4980300;28;20030;-88
2022/08/13 06:19:00;;;;;;;12.48;5.63;;;22.70;99.90;;;;;;4979501;28;20043;-88
2022/08/13 06:21:27;;;;;;;11.90;6.95;;;22.70;99.90;;;;;;4979399;28;20390;-88
2022/08/13 06:23:54;;;;;;;15.60;7.28;;;22.80;99.90;;;;;;4969846;28;20539;-88
2022/08/13 06:26:22;;;;;;;12.75;6.57;;;22.70;99.90;;;;;;4981682;28;20030;-89
2022/08/13 06:28:50;;;;;;;14.63;7.07;;;22.60;99.90;;;;;;4979866;28;20045;-89
2022/08/13 06:31:18;;;;;;;16.60;7.53;;;22.60;99.90;;;;;;4980194;28;20015;-90
2022/08/13 06:33:45;;;;;;;12.52;7.47;;;22.60;99.90;;;;;;4979669;28;20110;-90
2022/08/13 06:36:13;;;;;;;12.25;7.40;;;22.60;99.90;;;;;;4980302;28;20030;-89
2022/08/13 06:38:48;;;;;;;12.13;7.28;;;22.60;99.90;;;;;;4977442;28;20058;-89
2022/08/13 06:41:15;;;;;;;11.98;7.18;;;22.70;99.90;;;;;;4978790;28;20084;-89
2022/08/13 06:43:50;;;;;;;17.20;9.07;;;22.70;99.90;;;;;;4979808;28;20141;-91
2022/08/13 06:46:20;;;;;;;12.82;8.32;;;22.60;99.90;;;;;;4977452;28;20403;-89
2022/08/13 06:48:46;;;;;;;11.10;7.28;;;22.60;99.90;;;;;;4979878;28;20019;-88
2022/08/13 06:51:13;;;;;;;10.00;7.18;;;22.60;99.90;;;;;;4979050;28;20026;-88
2022/08/13 06:53:43;;;;;;;7.90;7.05;;;22.50;99.90;;;;;;4977688;28;20050;-90
2022/08/13 06:56:11;;;;;;;7.45;6.72;;;22.50;99.90;;;;;;4978369;28;20472;-87
2022/08/13 06:58:39;;;;;;;7.13;5.03;;;22.50;99.90;;;;;;4965383;28;20495;-91
2022/08/13 07:01:05;;;;;;;7.78;4.55;;;22.40;99.90;;;;;;4964216;28;20117;-89
2022/08/13 07:03:33;;;;;;;5.45;4.88;;;22.50;99.90;;;;;;4976497;28;20106;-90
2022/08/13 07:06:00;;;;;;;7.95;5.28;;;22.50;99.90;;;;;;4983530;28;20117;-89
2022/08/13 07:12:20;;;;;;;6.57;5.35;;;22.30;99.90;;;;;;4886389;29;20031;-96
2022/08/13 07:15:31;;;;;;;4.97;4.50;;;22.40;99.90;;;;;;4977986;28;20071;-93
2022/08/13 07:25:13;;;;;;;9.63;5.55;;;22.60;99.90;;;;;;4952314;28;20035;-91
2022/08/13 07:31:08;;;;;;;7.10;4.88;;;22.40;99.90;;;;;;4969966;28;20035;-93
2022/08/13 07:34:52;;;;;;;8.10;5.55;;;22.40;99.90;;;;;;4972190;28;20605;-94
2022/08/13 07:41:02;;;;;;;6.35;5.75;;;22.10;99.90;;;;;;4926389;28;20042;-91
2022/08/13 07:44:05;;;;;;;9.30;6.07;;;22.20;99.90;;;;;;4969726;28;20137;-93
2022/08/13 07:46:42;;;;;;;17.63;6.97;;;22.10;99.90;;;;;;4973522;28;20054;-89
2022/08/13 07:52:19;;;;;;;7.45;6.75;;;22.10;99.90;;;;;;4983727;23;20083;-91
2022/08/13 07:54:53;;;;;;;16.80;7.78;;;22.40;99.90;;;;;;4972619;28;20292;-95
2022/08/13 07:57:31;;;;;;;30.20;8.32;;;22.60;99.90;;;;;;4976348;28;20161;-91
2022/08/13 07:59:57;;;;;;;7.70;7.00;;;22.80;99.90;;;;;;4973036;28;20035;-91
2022/08/13 08:02:26;;;;;;;43.67;8.52;;;22.90;99.90;;;;;;4974831;28;20030;-90
2022/08/13 08:04:58;;;;;;;7.65;6.85;;;23.00;99.90;;;;;;4974183;28;20435;-92
2022/08/13 08:07:28;;;;;;;7.28;6.68;;;23.00;99.90;;;;;;4973716;28;20054;-94
2022/08/13 08:09:54;;;;;;;10.98;6.50;;;23.10;99.90;;;;;;4971385;28;20026;-90
2022/08/13 08:12:35;;;;;;;11.90;7.07;;;23.20;99.90;;;;;;4973857;28;20558;-91
2022/08/13 08:15:05;;;;;;;9.18;6.85;;;23.30;99.90;;;;;;4971507;28;20027;-92
2022/08/13 08:17:31;;;;;;;14.55;7.18;;;23.30;99.90;;;;;;4990974;28;20614;-92
2022/08/13 08:20:06;;;;;;;7.22;6.28;;;23.30;99.90;;;;;;4974165;28;20066;-94
2022/08/13 08:22:33;;;;;;;7.25;6.32;;;23.30;99.90;;;;;;4988383;28;20038;-92
2022/08/13 08:24:59;;;;;;;13.80;7.57;;;23.40;99.90;;;;;;4972088;28;20037;-93
2022/08/13 08:27:42;;;;;;;7.97;7.03;;;23.30;99.90;;;;;;4979053;28;20027;-95
2022/08/13 08:30:19;;;;;;;9.57;6.93;;;23.50;99.90;;;;;;4968241;28;20109;-93
2022/08/13 08:33:14;;;;;;;9.02;7.05;;;23.60;99.90;;;;;;4975167;28;20254;-94
2022/08/13 08:35:40;;;;;;;22.30;8.18;;;23.80;99.90;;;;;;4974118;28;20463;-91
2022/08/13 08:43:57;;;;;;;16.00;9.23;;;24.20;99.90;;;;;;4973594;28;20081;-88
2022/08/13 08:46:39;;;;;;;21.25;9.63;;;24.30;99.90;;;;;;4972204;28;20057;-92
2022/08/13 08:49:07;;;;;;;13.20;10.38;;;24.40;99.90;;;;;;4974654;28;20042;-91
2022/08/13 08:51:36;;;;;;;15.23;10.60;;;24.40;99.90;;;;;;4972636;28;20077;-93
2022/08/13 08:54:12;;;;;;;20.05;11.35;;;24.40;99.90;;;;;;4972204;28;20038;-94
2022/08/13 08:56:41;;;;;;;56.28;12.10;;;24.30;99.90;;;;;;4970634;28;20022;-89
2022/08/13 08:59:17;;;;;;;25.80;9.98;;;24.50;99.90;;;;;;4952767;28;20035;-94
2022/08/13 09:01:46;;;;;;;13.48;9.65;;;24.80;99.90;;;;;;4968646;28;20594;-88
2022/08/13 09:04:14;;;;;;;14.07;8.15;;;25.00;99.90;;;;;;4967780;28;20134;-96
2022/08/13 09:06:42;;;;;;;17.17;8.13;;;25.20;99.90;;;;;;4969854;28;20131;-88
2022/08/13 09:09:08;;;;;;;13.85;6.65;;;25.50;99.90;;;;;;4972411;28;20033;-89
2022/08/13 09:11:36;;;;;;;14.82;7.90;;;25.80;99.90;;;;;;4955903;28;20462;-88
2022/08/13 09:14:08;;;;;;;17.30;6.32;;;25.70;99.90;;;;;;4971307;28;20023;-84
2022/08/13 09:16:44;;;;;;;20.38;6.43;;;25.60;99.90;;;;;;4970719;28;20053;-85
2022/08/13 09:19:12;;;;;;;12.95;5.72;;;25.80;99.90;;;;;;4970542;28;20118;-84
2022/08/13 09:21:43;;;;;;;19.40;5.57;;;25.80;99.90;;;;;;4971511;28;20014;-83
2022/08/13 09:24:11;;;;;;;14.80;5.63;;;25.90;99.90;;;;;;4968935;28;20525;-84
2022/08/13 09:26:38;;;;;;;11.05;5.32;;;26.00;99.90;;;;;;4970920;28;20053;-88
2022/08/13 09:29:05;;;;;;;18.13;6.22;;;26.10;99.90;;;;;;4962998;28;20102;-88
2022/08/13 09:31:30;;;;;;;10.30;5.40;;;26.10;99.90;;;;;;4970671;28;20033;-85
2022/08/13 09:33:56;;;;;;;20.83;5.68;;;26.00;99.90;;;;;;4970431;28;20447;-83
2022/08/13 09:36:24;;;;;;;11.30;5.07;;;26.10;99.90;;;;;;4971140;28;20118;-84
2022/08/13 09:38:50;;;;;;;12.15;4.80;;;26.20;99.90;;;;;;4967663;28;20057;-84
2022/08/13 09:41:28;;;;;;;14.18;5.25;;;26.20;99.90;;;;;;4970343;28;20627;-85
2022/08/13 09:43:56;;;;;;;12.50;5.22;;;26.20;99.90;;;;;;4968841;28;20578;-85
2022/08/13 09:46:23;;;;;;;11.43;4.97;;;25.90;99.90;;;;;;4970182;28;20447;-86
2022/08/13 09:48:54;;;;;;;13.45;5.30;;;25.70;99.90;;;;;;4971408;28;20027;-86
2022/08/13 09:51:24;;;;;;;13.98;5.00;;;25.70;99.90;;;;;;4970252;28;20101;-84
2022/08/13 09:53:51;;;;;;;13.75;5.72;;;25.50;99.90;;;;;;4969009;28;20126;-87
2022/08/13 09:56:17;;;;;;;13.90;5.35;;;25.40;99.90;;;;;;4970272;28;20031;-89
2022/08/13 09:58:49;;;;;;;9.00;4.55;;;25.30;99.90;;;;;;4970178;28;20491;-86
2022/08/13 10:01:15;;;;;;;13.63;5.03;;;25.40;99.90;;;;;;4968834;28;20019;-87
2022/08/13 10:03:42;;;;;;;11.73;5.28;;;25.60;99.90;;;;;;4970011;28;20388;-88
2022/08/13 10:06:11;;;;;;;10.18;4.80;;;25.70;99.90;;;;;;4969908;28;20109;-85
2022/08/13 10:08:37;;;;;;;13.27;5.07;;;25.70;99.90;;;;;;4969948;28;20053;-88
2022/08/13 10:11:03;;;;;;;15.80;5.43;;;25.60;99.90;;;;;;4968549;28;20022;-87
2022/08/13 10:13:29;;;;;;;13.43;5.00;;;25.40;99.90;;;;;;4970013;28;20034;-88
2022/08/13 10:15:55;;;;;;;14.30;5.60;;;25.40;99.90;;;;;;4970116;28;20018;-89
2022/08/13 10:18:20;;;;;;;18.48;5.68;;;25.40;99.90;;;;;;4967531;28;20526;-87
2022/08/13 10:20:48;;;;;;;16.83;5.60;;;25.60;99.90;;;;;;4968329;28;20089;-87
2022/08/13 10:23:15;;;;;;;13.60;5.32;;;25.60;99.90;;;;;;4966975;28;20019;-86
2022/08/13 10:25:43;;;;;;;13.32;5.13;;;25.80;99.90;;;;;;4969342;28;20023;-86
2022/08/13 10:28:27;;;;;;;15.82;4.80;;;25.90;99.90;;;;;;4968424;28;20019;-88
2022/08/13 10:30:54;;;;;;;11.63;5.47;;;25.90;99.90;;;;;;4967946;28;20027;-87
2022/08/13 10:33:21;;;;;;;14.25;4.60;;;26.00;99.90;;;;;;4969232;28;20019;-87
2022/08/13 10:35:55;;;;;;;11.00;4.68;;;26.30;99.90;;;;;;4965474;28;20027;-86
2022/08/13 10:38:29;;;;;;;15.00;5.20;;;26.30;99.90;;;;;;4968408;28;20112;-87
2022/08/13 10:41:04;;;;;;;14.95;5.25;;;26.40;99.90;;;;;;4970549;28;20041;-89
2022/08/13 10:43:31;;;;;;;12.82;4.90;;;26.40;99.90;;;;;;4968348;28;20444;-87
2022/08/13 10:45:58;;;;;;;13.77;4.90;;;26.40;99.90;;;;;;4975595;28;20095;-86
2022/08/13 10:48:25;;;;;;;13.25;4.20;;;26.20;99.90;;;;;;4974395;28;20022;-87
2022/08/13 10:50:53;;;;;;;7.53;4.07;;;26.10;99.90;;;;;;4975091;28;20075;-86
2022/08/13 10:56:04;;;;;;;14.00;4.95;;;26.10;99.90;;;;;;4972475;28;20097;-86
2022/08/13 10:58:33;;;;;;;14.70;4.78;;;26.10;99.90;;;;;;4975103;28;20438;-87
2022/08/13 11:01:02;;;;;;;11.13;4.80;;;26.30;99.90;;;;;;4974359;28;20042;-86
2022/08/13 11:03:27;;;;;;;16.45;5.20;;;26.20;99.90;;;;;;4972857;28;20027;-87
2022/08/13 11:05:53;;;;;;;16.30;5.80;;;26.20;99.90;;;;;;4972309;28;20018;-87
2022/08/13 11:08:19;;;;;;;17.17;4.82;;;26.10;99.90;;;;;;4973083;28;20539;-86
2022/08/13 11:10:45;;;;;;;15.48;5.50;;;26.10;99.90;;;;;;4973454;28;20384;-87
2022/08/13 11:13:11;;;;;;;14.13;4.85;;;26.20;99.90;;;;;;4973399;28;20034;-86
2022/08/13 11:15:36;;;;;;;14.50;6.15;;;26.40;99.90;;;;;;4973635;28;20506;-87
2022/08/13 11:18:05;;;;;;;12.75;4.53;;;26.40;99.90;;;;;;4978726;28;20034;-87
2022/08/13 11:20:40;;;;;;;12.15;4.63;;;26.40;99.90;;;;;;4982496;28;20125;-87
2022/08/13 11:23:06;;;;;;;15.63;4.60;;;26.50;99.90;;;;;;4965019;28;20622;-87
2022/08/13 11:25:32;;;;;;;12.20;4.60;;;26.30;99.90;;;;;;4975387;28;20026;-86
2022/08/13 11:27:58;;;;;;;10.77;4.20;;;26.40;99.90;;;;;;4993459;28;20035;-87
2022/08/13 11:30:23;;;;;;;12.00;4.68;;;26.70;99.90;;;;;;4992657;28;20366;-87
2022/08/13 11:32:49;;;;;;;10.57;4.43;;;26.80;99.90;;;;;;4974536;28;20058;-87
2022/08/13 11:35:15;;;;;;;11.95;4.28;;;26.90;99.90;;;;;;4985422;28;20035;-86
2022/08/13 11:37:40;;;;;;;12.18;4.80;;;27.10;99.90;;;;;;4975249;28;20026;-88
2022/08/13 11:40:07;;;;;;;12.18;4.57;;;27.30;99.90;;;;;;4980666;28;20050;-87
2022/08/13 11:42:32;;;;;;;17.05;4.88;;;27.40;99.90;;;;;;4979916;28;20514;-88
2022/08/13 11:44:58;;;;;;;12.88;5.53;;;27.50;99.90;;;;;;4976073;28;20049;-87
2022/08/13 11:47:24;;;;;;;51.08;7.03;;;27.00;99.90;;;;;;4992011;28;20046;-89
2022/08/13 11:49:50;;;;;;;15.35;4.90;;;27.00;99.90;;;;;;4985431;28;20104;-86
2022/08/13 11:52:15;;;;;;;18.60;4.38;;;27.00;99.90;;;;;;4991750;28;20491;-86
2022/08/13 11:54:47;;;;;;;13.35;5.07;;;27.00;99.90;;;;;;4991391;28;20031;-91
2022/08/13 11:57:13;;;;;;;19.02;4.90;;;27.20;99.90;;;;;;4973630;28;20139;-87
2022/08/13 11:59:39;;;;;;;10.75;4.25;;;27.40;99.90;;;;;;4979625;28;20114;-88
2022/08/13 12:02:18;;;;;;;15.30;5.22;;;27.50;99.90;;;;;;4979011;28;20058;-96
2022/08/13 12:10:13;;;;;;;13.45;4.95;;;26.90;99.90;;;;;;5647311;23;20058;-93
2022/08/13 12:20:27;;;;;;;40.75;5.07;;;27.60;99.90;;;;;;5645226;23;20147;-94
2022/08/13 12:22:59;;;;;;;38.97;5.55;;;27.60;99.90;;;;;;4955286;28;20496;-96
2022/08/13 12:25:28;;;;;;;12.43;5.43;;;27.70;99.90;;;;;;4958347;28;20034;-90
2022/08/13 12:33:35;;;;;;;10.15;4.07;;;27.70;99.90;;;;;;4967171;23;20051;-92
2022/08/13 12:38:29;;;;;;;11.52;5.20;;;27.80;99.90;;;;;;4939978;28;20550;-91
2022/08/13 12:42:39;;;;;;;11.32;4.43;;;27.90;99.90;;;;;;4960128;28;20031;-92
2022/08/13 12:48:07;;;;;;;12.95;5.13;;;28.30;99.90;;;;;;4914423;29;20035;-94
2022/08/13 12:50:54;;;;;;;10.95;4.82;;;28.90;99.90;;;;;;5080796;23;20047;-96
2022/08/13 12:56:16;;;;;;;11.10;4.85;;;28.10;99.90;;;;;;5269208;23;20064;-93
2022/08/13 12:58:50;;;;;;;48.25;6.35;;;28.00;99.90;;;;;;4984778;28;20105;-92
2022/08/13 13:01:19;;;;;;;11.85;4.68;;;28.10;99.90;;;;;;5108648;23;20694;-89
2022/08/13 13:03:45;;;;;;;9.75;4.30;;;28.30;99.90;;;;;;4966062;23;20361;-93
2022/08/13 13:09:26;;;;;;;10.68;4.43;;;28.90;99.90;;;;;;5473696;23;20063;-95
2022/08/13 13:11:52;;;;;;;9.82;4.90;;;29.00;99.90;;;;;;4960373;28;20109;-93
2022/08/13 13:14:23;;;;;;;13.55;5.00;;;28.60;99.90;;;;;;4952861;28;20114;-92
2022/08/13 13:19:19;;;;;;;12.05;4.90;;;28.60;99.90;;;;;;4979788;23;20051;-93
2022/08/13 13:22:07;;;;;;;15.55;5.70;;;29.00;99.90;;;;;;4960555;28;20023;-93
2022/08/13 13:25:02;;;;;;;22.98;5.50;;;28.60;99.90;;;;;;4954139;28;20253;-92
2022/08/13 13:30:17;;;;;;;13.20;5.47;;;28.90;99.90;;;;;;4974384;23;20066;-88
2022/08/13 13:32:47;;;;;;;11.75;5.72;;;29.10;99.90;;;;;;5027567;23;20014;-96
2022/08/13 13:35:12;;;;;;;10.90;5.65;;;29.40;99.90;;;;;;4955829;28;20047;-94
2022/08/13 13:37:45;;;;;;;14.57;6.93;;;29.70;99.90;;;;;;4955351;28;20609;-93
2022/08/13 13:40:12;;;;;;;21.25;7.13;;;29.60;99.90;;;;;;4954669;28;20039;-91
2022/08/13 13:45:32;;;;;;;14.73;7.18;;;30.00;99.90;;;;;;4973341;23;20044;-95
2022/08/13 13:48:00;;;;;;;16.73;7.65;;;30.50;99.90;;;;;;4943779;28;20023;-89
2022/08/13 13:50:27;;;;;;;16.70;8.98;;;30.90;99.10;;;;;;4948259;28;20022;-93
2022/08/13 13:52:53;;;;;;;17.50;7.40;;;30.80;98.80;;;;;;5120241;23;20057;-91
2022/08/13 13:55:18;;;;;;;13.52;7.03;;;30.30;99.70;;;;;;4965459;28;20027;-89
2022/08/13 13:57:52;;;;;;;17.92;7.47;;;30.50;99.60;;;;;;4975713;28;20613;-92
2022/08/13 14:00:17;;;;;;;19.83;7.50;;;29.80;99.90;;;;;;4993566;28;20046;-87
2022/08/13 14:02:53;;;;;;;11.80;6.03;;;29.30;99.90;;;;;;4995111;28;20061;-91
2022/08/13 14:05:20;;;;;;;14.02;5.82;;;29.80;99.90;;;;;;4978966;28;20113;-90
2022/08/13 14:12:51;;;;;;;9.70;4.93;;;32.60;97.00;;;;;;4958963;23;20094;-88
2022/08/13 14:15:20;;;;;;;11.63;4.75;;;33.80;95.10;;;;;;4965136;28;20023;-91
2022/08/13 14:17:46;;;;;;;14.25;5.32;;;33.60;94.50;;;;;;4946860;29;20055;-93
2022/08/13 14:20:14;;;;;;;11.73;4.95;;;33.50;94.30;;;;;;4950941;28;20040;-90
2022/08/13 14:22:43;;;;;;;17.45;5.47;;;33.60;93.70;;;;;;4932918;29;20008;-93
2022/08/13 14:25:15;;;;;;;11.82;4.90;;;32.80;94.30;;;;;;4956513;28;20055;-91
2022/08/13 14:27:42;;;;;;;11.18;4.75;;;32.50;95.00;;;;;;4942249;29;20023;-93
2022/08/13 14:30:12;;;;;;;9.23;5.03;;;32.40;95.00;;;;;;4942573;29;20161;-92
2022/08/13 14:32:40;;;;;;;9.68;4.88;;;33.00;94.10;;;;;;4945930;29;20435;-90
2022/08/13 14:35:11;;;;;;;7.07;4.25;;;34.10;93.40;;;;;;4956241;28;20035;-91
2022/08/13 14:37:39;;;;;;;11.93;4.80;;;35.90;91.10;;;;;;4933081;29;20035;-91